sensor_id;sensor_type;location;lat;lon;timestamp;temperature;humidity
19110;DHT22;9687;50.836;12.060;2024-01-15T00:00:51;4.10;83.70
19110;DHT22;9687;50.836;12.060;2024-01-15T00:03:19;4.10;83.70
19110;DHT22;9687;50.836;12.060;2024-01-15T00:05:47;4.10;84.40
19110;DHT22;9687;50.836;12.060;2024-01-15T00:08:17;4.20;83.80
19110;DHT22;9687;50.836;12.060;2024-01-15T00:10:46;4.10;83.70
19110;DHT22;9687;50.836;12.060;2024-01-15T00:13:14;4.10;83.70
19110;DHT22;9687;50.836;12.060;2024-01-15T00:15:43;4.20;83.80
19110;DHT22;9687;50.836;12.060;2024-01-15T00:18:12;4.20;83.80
19110;DHT22;9687;50.836;12.060;2024-01-15T00:20:40;4.20;83.80
19110;DHT22;9687;50.836;12.060;2024-01-15T00:23:08;4.20;83.80
19110;DHT22;9687;50.836;12.060;2024-01-15T00:25:36;4.20;83.80
19110;DHT22;9687;50.836;12.060;2024-01-15T00:28:05;4.20;83.70
19110;DHT22;9687;50.836;12.060;2024-01-15T00:30:35;4.20;83.50
19110;DHT22;9687;50.836;12.060;2024-01-15T00:33:04;4.30;83.60
19110;DHT22;9687;50.836;12.060;2024-01-15T00:35:51;4.30;83.60
19110;DHT22;9687;50.836;12.060;2024-01-15T00:38:19;4.30;83.60
19110;DHT22;9687;50.836;12.060;2024-01-15T00:40:47;4.30;83.60
19110;DHT22;9687;50.836;12.060;2024-01-15T00:43:30;4.30;83.30
19110;DHT22;9687;50.836;12.060;2024-01-15T00:46:02;4.30;83.30
19110;DHT22;9687;50.836;12.060;2024-01-15T00:48:32;4.20;83.20
19110;DHT22;9687;50.836;12.060;2024-01-15T00:50:59;4.30;83.30
19110;DHT22;9687;50.836;12.060;2024-01-15T00:53:29;4.30;83.20
19110;DHT22;9687;50.836;12.060;2024-01-15T00:55:56;4.20;83.10
19110;DHT22;9687;50.836;12.060;2024-01-15T00:58:26;4.20;83.10
19110;DHT22;9687;50.836;12.060;2024-01-15T01:00:54;4.20;83.00
19110;DHT22;9687;50.836;12.060;2024-01-15T01:03:28;4.20;82.90
19110;DHT22;9687;50.836;12.060;2024-01-15T01:05:56;4.20;83.00
19110;DHT22;9687;50.836;12.060;2024-01-15T01:08:23;4.10;82.80
19110;DHT22;9687;50.836;12.060;2024-01-15T01:10:55;4.20;82.90
19110;DHT22;9687;50.836;12.060;2024-01-15T01:13:22;4.20;82.90
19110;DHT22;9687;50.836;12.060;2024-01-15T01:15:50;4.20;82.90
19110;DHT22;9687;50.836;12.060;2024-01-15T01:18:18;4.20;82.90
19110;DHT22;9687;50.836;12.060;2024-01-15T01:20:50;4.20;82.80
19110;DHT22;9687;50.836;12.060;2024-01-15T01:23:18;4.30;82.90
19110;DHT22;9687;50.836;12.060;2024-01-15T01:25:46;4.30;82.80
19110;DHT22;9687;50.836;12.060;2024-01-15T01:28:13;4.30;82.70
19110;DHT22;9687;50.836;12.060;2024-01-15T01:30:42;4.20;82.50
19110;DHT22;9687;50.836;12.060;2024-01-15T01:33:10;4.30;82.60
19110;DHT22;9687;50.836;12.060;2024-01-15T01:35:39;4.20;82.40
19110;DHT22;9687;50.836;12.060;2024-01-15T01:38:08;4.20;82.40
19110;DHT22;9687;50.836;12.060;2024-01-15T01:40:35;4.20;82.30
19110;DHT22;9687;50.836;12.060;2024-01-15T01:43:02;4.20;82.30
19110;DHT22;9687;50.836;12.060;2024-01-15T01:45:30;4.20;82.30
19110;DHT22;9687;50.836;12.060;2024-01-15T01:48:00;4.20;82.30
19110;DHT22;9687;50.836;12.060;2024-01-15T01:50:27;4.20;82.20
19110;DHT22;9687;50.836;12.060;2024-01-15T01:52:57;4.20;82.30
19110;DHT22;9687;50.836;12.060;2024-01-15T01:55:27;4.20;83.10
19110;DHT22;9687;50.836;12.060;2024-01-15T01:57:56;4.20;82.10
19110;DHT22;9687;50.836;12.060;2024-01-15T02:00:24;4.20;82.10
19110;DHT22;9687;50.836;12.060;2024-01-15T02:02:52;4.20;82.20
19110;DHT22;9687;50.836;12.060;2024-01-15T02:05:22;4.20;82.20
19110;DHT22;9687;50.836;12.060;2024-01-15T02:07:50;4.20;81.80
19110;DHT22;9687;50.836;12.060;2024-01-15T02:10:17;4.20;81.70
19110;DHT22;9687;50.836;12.060;2024-01-15T02:12:47;4.10;81.60
19110;DHT22;9687;50.836;12.060;2024-01-15T02:15:15;4.10;81.60
19110;DHT22;9687;50.836;12.060;2024-01-15T02:17:56;4.10;81.60
19110;DHT22;9687;50.836;12.060;2024-01-15T02:20:24;4.00;81.50
19110;DHT22;9687;50.836;12.060;2024-01-15T02:22:52;4.00;81.50
19110;DHT22;9687;50.836;12.060;2024-01-15T02:25:21;4.00;81.50
19110;DHT22;9687;50.836;12.060;2024-01-15T02:27:48;4.00;81.50
19110;DHT22;9687;50.836;12.060;2024-01-15T02:30:16;4.00;81.50
19110;DHT22;9687;50.836;12.060;2024-01-15T02:32:44;3.90;81.30
19110;DHT22;9687;50.836;12.060;2024-01-15T02:35:11;3.90;81.10
19110;DHT22;9687;50.836;12.060;2024-01-15T02:37:39;3.90;81.20
19110;DHT22;9687;50.836;12.060;2024-01-15T02:40:23;3.90;81.10
19110;DHT22;9687;50.836;12.060;2024-01-15T02:42:59;3.80;81.20
19110;DHT22;9687;50.836;12.060;2024-01-15T02:45:27;3.80;81.10
19110;DHT22;9687;50.836;12.060;2024-01-15T02:47:54;3.80;81.20
19110;DHT22;9687;50.836;12.060;2024-01-15T02:50:22;3.80;81.20
19110;DHT22;9687;50.836;12.060;2024-01-15T02:52:50;3.80;81.10
19110;DHT22;9687;50.836;12.060;2024-01-15T02:55:17;3.80;81.20
19110;DHT22;9687;50.836;12.060;2024-01-15T02:57:47;3.80;81.10
19110;DHT22;9687;50.836;12.060;2024-01-15T03:00:15;3.70;81.10
19110;DHT22;9687;50.836;12.060;2024-01-15T03:02:44;3.70;81.10
19110;DHT22;9687;50.836;12.060;2024-01-15T03:05:12;3.70;80.90
19110;DHT22;9687;50.836;12.060;2024-01-15T03:07:39;3.70;81.00
19110;DHT22;9687;50.836;12.060;2024-01-15T03:10:07;3.70;81.00
19110;DHT22;9687;50.836;12.060;2024-01-15T03:12:35;3.60;80.60
19110;DHT22;9687;50.836;12.060;2024-01-15T03:15:05;3.60;80.60
19110;DHT22;9687;50.836;12.060;2024-01-15T03:17:33;3.60;80.80
19110;DHT22;9687;50.836;12.060;2024-01-15T03:20:01;3.60;80.80
19110;DHT22;9687;50.836;12.060;2024-01-15T03:22:29;3.60;80.80
19110;DHT22;9687;50.836;12.060;2024-01-15T03:25:06;3.50;80.70
19110;DHT22;9687;50.836;12.060;2024-01-15T03:27:35;3.60;80.80
19110;DHT22;9687;50.836;12.060;2024-01-15T03:30:05;3.60;80.70
19110;DHT22;9687;50.836;12.060;2024-01-15T03:32:33;3.60;80.70
19110;DHT22;9687;50.836;12.060;2024-01-15T03:35:00;3.60;80.70
19110;DHT22;9687;50.836;12.060;2024-01-15T03:37:29;3.60;80.70
19110;DHT22;9687;50.836;12.060;2024-01-15T03:39:56;3.60;80.70
19110;DHT22;9687;50.836;12.060;2024-01-15T03:42:27;3.60;79.90
19110;DHT22;9687;50.836;12.060;2024-01-15T03:44:54;3.60;80.50
19110;DHT22;9687;50.836;12.060;2024-01-15T03:47:24;3.60;80.30
19110;DHT22;9687;50.836;12.060;2024-01-15T03:49:51;3.60;80.40
19110;DHT22;9687;50.836;12.060;2024-01-15T03:52:19;3.60;80.60
19110;DHT22;9687;50.836;12.060;2024-01-15T03:54:47;3.60;80.50
19110;DHT22;9687;50.836;12.060;2024-01-15T03:57:15;3.70;80.60
19110;DHT22;9687;50.836;12.060;2024-01-15T03:59:42;3.60;80.30
19110;DHT22;9687;50.836;12.060;2024-01-15T04:02:10;3.70;80.40
19110;DHT22;9687;50.836;12.060;2024-01-15T04:04:41;3.60;80.30
19110;DHT22;9687;50.836;12.060;2024-01-15T04:07:09;3.60;80.30
19110;DHT22;9687;50.836;12.060;2024-01-15T04:09:38;3.70;80.30
19110;DHT22;9687;50.836;12.060;2024-01-15T04:12:06;3.60;80.20
19110;DHT22;9687;50.836;12.060;2024-01-15T04:14:42;3.70;80.20
19110;DHT22;9687;50.836;12.060;2024-01-15T04:17:10;3.60;80.10
19110;DHT22;9687;50.836;12.060;2024-01-15T04:19:37;3.60;80.10
19110;DHT22;9687;50.836;12.060;2024-01-15T04:22:11;3.60;80.10
19110;DHT22;9687;50.836;12.060;2024-01-15T04:24:39;3.60;80.20
19110;DHT22;9687;50.836;12.060;2024-01-15T04:27:06;3.50;79.90
19110;DHT22;9687;50.836;12.060;2024-01-15T04:29:34;3.50;80.20
19110;DHT22;9687;50.836;12.060;2024-01-15T04:32:04;3.50;80.30
19110;DHT22;9687;50.836;12.060;2024-01-15T04:34:32;3.50;80.40
19110;DHT22;9687;50.836;12.060;2024-01-15T04:37:03;3.50;80.40
19110;DHT22;9687;50.836;12.060;2024-01-15T04:39:32;3.50;80.30
19110;DHT22;9687;50.836;12.060;2024-01-15T04:42:01;3.50;80.30
19110;DHT22;9687;50.836;12.060;2024-01-15T04:44:28;3.50;80.30
19110;DHT22;9687;50.836;12.060;2024-01-15T04:46:56;3.60;80.30
19110;DHT22;9687;50.836;12.060;2024-01-15T04:49:24;3.60;80.30
19110;DHT22;9687;50.836;12.060;2024-01-15T04:51:53;3.60;80.30
19110;DHT22;9687;50.836;12.060;2024-01-15T04:54:25;3.60;80.20
19110;DHT22;9687;50.836;12.060;2024-01-15T04:56:57;3.60;80.20
19110;DHT22;9687;50.836;12.060;2024-01-15T04:59:27;3.60;79.90
19110;DHT22;9687;50.836;12.060;2024-01-15T05:01:56;3.60;80.10
19110;DHT22;9687;50.836;12.060;2024-01-15T05:04:23;3.60;79.40
19110;DHT22;9687;50.836;12.060;2024-01-15T05:06:53;3.60;80.10
19110;DHT22;9687;50.836;12.060;2024-01-15T05:09:22;3.70;80.10
19110;DHT22;9687;50.836;12.060;2024-01-15T05:11:49;3.70;80.10
19110;DHT22;9687;50.836;12.060;2024-01-15T05:14:19;3.70;79.40
19110;DHT22;9687;50.836;12.060;2024-01-15T05:16:47;3.80;79.90
19110;DHT22;9687;50.836;12.060;2024-01-15T05:19:16;3.70;79.80
19110;DHT22;9687;50.836;12.060;2024-01-15T05:21:44;3.70;79.80
19110;DHT22;9687;50.836;12.060;2024-01-15T05:24:18;3.70;79.70
19110;DHT22;9687;50.836;12.060;2024-01-15T05:26:49;3.70;79.60
19110;DHT22;9687;50.836;12.060;2024-01-15T05:29:25;3.70;79.40
19110;DHT22;9687;50.836;12.060;2024-01-15T05:32:02;3.70;79.40
19110;DHT22;9687;50.836;12.060;2024-01-15T05:34:31;3.60;79.30
19110;DHT22;9687;50.836;12.060;2024-01-15T05:37:02;3.70;79.40
19110;DHT22;9687;50.836;12.060;2024-01-15T05:39:30;3.60;79.30
19110;DHT22;9687;50.836;12.060;2024-01-15T05:41:59;3.60;79.30
19110;DHT22;9687;50.836;12.060;2024-01-15T05:44:29;3.60;79.10
19110;DHT22;9687;50.836;12.060;2024-01-15T05:46:58;3.60;79.10
19110;DHT22;9687;50.836;12.060;2024-01-15T05:49:35;3.60;79.00
19110;DHT22;9687;50.836;12.060;2024-01-15T05:59:14;3.50;78.80
19110;DHT22;9687;50.836;12.060;2024-01-15T06:01:44;3.50;78.70
19110;DHT22;9687;50.836;12.060;2024-01-15T06:04:12;3.50;78.70
19110;DHT22;9687;50.836;12.060;2024-01-15T06:06:40;3.50;78.80
19110;DHT22;9687;50.836;12.060;2024-01-15T06:09:24;3.40;79.40
19110;DHT22;9687;50.836;12.060;2024-01-15T06:11:52;3.40;78.70
19110;DHT22;9687;50.836;12.060;2024-01-15T06:14:21;3.40;78.10
19110;DHT22;9687;50.836;12.060;2024-01-15T06:16:51;3.40;78.90
19110;DHT22;9687;50.836;12.060;2024-01-15T06:19:20;3.40;78.90
19110;DHT22;9687;50.836;12.060;2024-01-15T06:21:50;3.40;78.70
19110;DHT22;9687;50.836;12.060;2024-01-15T06:24:35;3.40;78.70
19110;DHT22;9687;50.836;12.060;2024-01-15T06:27:04;3.40;78.80
19110;DHT22;9687;50.836;12.060;2024-01-15T06:29:50;3.40;78.70
19110;DHT22;9687;50.836;12.060;2024-01-15T06:32:20;3.40;78.70
19110;DHT22;9687;50.836;12.060;2024-01-15T06:34:48;3.40;78.70
19110;DHT22;9687;50.836;12.060;2024-01-15T06:37:25;3.40;78.80
19110;DHT22;9687;50.836;12.060;2024-01-15T06:40:18;3.40;78.20
19110;DHT22;9687;50.836;12.060;2024-01-15T06:43:06;3.40;78.80
19110;DHT22;9687;50.836;12.060;2024-01-15T06:45:45;3.40;78.80
19110;DHT22;9687;50.836;12.060;2024-01-15T06:55:30;3.40;78.60
19110;DHT22;9687;50.836;12.060;2024-01-15T06:57:58;3.40;78.50
19110;DHT22;9687;50.836;12.060;2024-01-15T07:00:43;3.40;78.50
19110;DHT22;9687;50.836;12.060;2024-01-15T07:03:13;3.40;78.30
19110;DHT22;9687;50.836;12.060;2024-01-15T07:05:58;3.30;78.30
19110;DHT22;9687;50.836;12.060;2024-01-15T07:08:27;3.30;78.50
19110;DHT22;9687;50.836;12.060;2024-01-15T07:11:15;3.30;78.40
19110;DHT22;9687;50.836;12.060;2024-01-15T07:13:56;3.30;78.40
19110;DHT22;9687;50.836;12.060;2024-01-15T07:16:25;3.30;78.40
19110;DHT22;9687;50.836;12.060;2024-01-15T07:18:56;3.40;78.40
19110;DHT22;9687;50.836;12.060;2024-01-15T07:21:26;3.30;78.30
19110;DHT22;9687;50.836;12.060;2024-01-15T07:23:57;3.40;78.30
19110;DHT22;9687;50.836;12.060;2024-01-15T07:26:52;3.30;78.20
19110;DHT22;9687;50.836;12.060;2024-01-15T07:29:21;3.30;78.20
19110;DHT22;9687;50.836;12.060;2024-01-15T07:31:50;3.30;78.10
19110;DHT22;9687;50.836;12.060;2024-01-15T07:34:18;3.30;78.10
19110;DHT22;9687;50.836;12.060;2024-01-15T07:36:46;3.30;78.10
19110;DHT22;9687;50.836;12.060;2024-01-15T07:39:14;3.30;78.10
19110;DHT22;9687;50.836;12.060;2024-01-15T07:41:42;3.30;78.10
19110;DHT22;9687;50.836;12.060;2024-01-15T07:44:13;3.30;78.30
19110;DHT22;9687;50.836;12.060;2024-01-15T07:46:43;3.30;78.30
19110;DHT22;9687;50.836;12.060;2024-01-15T07:49:29;3.40;78.30
19110;DHT22;9687;50.836;12.060;2024-01-15T07:52:01;3.40;78.40
19110;DHT22;9687;50.836;12.060;2024-01-15T07:54:30;3.40;78.20
19110;DHT22;9687;50.836;12.060;2024-01-15T07:56:58;3.40;78.20
19110;DHT22;9687;50.836;12.060;2024-01-15T07:59:31;3.40;78.20
19110;DHT22;9687;50.836;12.060;2024-01-15T08:02:01;3.50;79.10
19110;DHT22;9687;50.836;12.060;2024-01-15T08:04:29;3.50;78.10
19110;DHT22;9687;50.836;12.060;2024-01-15T08:06:57;3.50;78.70
19110;DHT22;9687;50.836;12.060;2024-01-15T08:09:42;3.50;77.90
19110;DHT22;9687;50.836;12.060;2024-01-15T08:12:30;3.50;77.70
19110;DHT22;9687;50.836;12.060;2024-01-15T08:15:00;3.50;77.70
19110;DHT22;9687;50.836;12.060;2024-01-15T08:17:45;3.50;77.60
19110;DHT22;9687;50.836;12.060;2024-01-15T08:20:30;3.60;77.60
19110;DHT22;9687;50.836;12.060;2024-01-15T08:22:59;3.50;77.50
19110;DHT22;9687;50.836;12.060;2024-01-15T08:25:28;3.60;77.60
19110;DHT22;9687;50.836;12.060;2024-01-15T08:28:02;3.60;77.50
19110;DHT22;9687;50.836;12.060;2024-01-15T08:30:35;3.60;77.50
19110;DHT22;9687;50.836;12.060;2024-01-15T08:33:03;3.70;77.40
19110;DHT22;9687;50.836;12.060;2024-01-15T08:35:33;3.70;77.30
19110;DHT22;9687;50.836;12.060;2024-01-15T08:38:20;3.70;77.00
19110;DHT22;9687;50.836;12.060;2024-01-15T08:41:02;3.70;76.90
19110;DHT22;9687;50.836;12.060;2024-01-15T08:43:31;3.70;76.70
19110;DHT22;9687;50.836;12.060;2024-01-15T08:46:00;3.70;76.80
19110;DHT22;9687;50.836;12.060;2024-01-15T08:48:29;3.60;76.70
19110;DHT22;9687;50.836;12.060;2024-01-15T08:51:06;3.70;76.70
19110;DHT22;9687;50.836;12.060;2024-01-15T08:53:52;3.70;76.70
19110;DHT22;9687;50.836;12.060;2024-01-15T08:56:37;3.70;76.40
19110;DHT22;9687;50.836;12.060;2024-01-15T08:59:06;3.70;76.40
19110;DHT22;9687;50.836;12.060;2024-01-15T09:01:39;3.70;76.50
19110;DHT22;9687;50.836;12.060;2024-01-15T09:04:07;3.80;76.50
19110;DHT22;9687;50.836;12.060;2024-01-15T09:06:50;3.80;77.30
19110;DHT22;9687;50.836;12.060;2024-01-15T09:09:18;3.80;75.80
19110;DHT22;9687;50.836;12.060;2024-01-15T09:11:55;3.80;76.40
19110;DHT22;9687;50.836;12.060;2024-01-15T09:14:24;3.80;75.70
19110;DHT22;9687;50.836;12.060;2024-01-15T09:16:55;4.00;76.60
19110;DHT22;9687;50.836;12.060;2024-01-15T09:19:27;3.90;76.40
19110;DHT22;9687;50.836;12.060;2024-01-15T09:21:55;3.90;76.10
19110;DHT22;9687;50.836;12.060;2024-01-15T09:24:24;3.90;75.90
19110;DHT22;9687;50.836;12.060;2024-01-15T09:26:54;4.00;77.00
19110;DHT22;9687;50.836;12.060;2024-01-15T09:29:24;4.20;77.30
19110;DHT22;9687;50.836;12.060;2024-01-15T09:32:04;4.50;77.20
19110;DHT22;9687;50.836;12.060;2024-01-15T09:34:41;4.60;76.70
19110;DHT22;9687;50.836;12.060;2024-01-15T09:37:32;4.80;76.50
19110;DHT22;9687;50.836;12.060;2024-01-15T09:40:00;4.80;75.70
19110;DHT22;9687;50.836;12.060;2024-01-15T09:42:45;4.80;74.60
19110;DHT22;9687;50.836;12.060;2024-01-15T09:45:31;4.80;75.30
19110;DHT22;9687;50.836;12.060;2024-01-15T09:48:02;4.80;75.10
19110;DHT22;9687;50.836;12.060;2024-01-15T09:50:31;4.80;75.10
19110;DHT22;9687;50.836;12.060;2024-01-15T09:52:59;4.80;74.80
19110;DHT22;9687;50.836;12.060;2024-01-15T09:55:28;4.80;74.90
19110;DHT22;9687;50.836;12.060;2024-01-15T09:57:58;4.80;74.70
19110;DHT22;9687;50.836;12.060;2024-01-15T10:00:28;4.80;74.60
19110;DHT22;9687;50.836;12.060;2024-01-15T10:03:15;4.80;74.50
19110;DHT22;9687;50.836;12.060;2024-01-15T10:05:43;4.90;74.90
19110;DHT22;9687;50.836;12.060;2024-01-15T10:08:29;5.00;74.90
19110;DHT22;9687;50.836;12.060;2024-01-15T10:11:00;5.00;74.70
19110;DHT22;9687;50.836;12.060;2024-01-15T10:13:29;5.10;74.90
19110;DHT22;9687;50.836;12.060;2024-01-15T10:16:15;5.30;75.10
19110;DHT22;9687;50.836;12.060;2024-01-15T10:18:52;5.50;75.00
19110;DHT22;9687;50.836;12.060;2024-01-15T10:21:23;5.70;74.40
19110;DHT22;9687;50.836;12.060;2024-01-15T10:23:53;5.80;74.30
19110;DHT22;9687;50.836;12.060;2024-01-15T10:26:39;6.00;74.40
19110;DHT22;9687;50.836;12.060;2024-01-15T10:29:06;6.20;74.20
19110;DHT22;9687;50.836;12.060;2024-01-15T10:31:34;6.40;73.60
19110;DHT22;9687;50.836;12.060;2024-01-15T10:34:13;6.70;72.50
19110;DHT22;9687;50.836;12.060;2024-01-15T10:36:48;6.70;73.10
19110;DHT22;9687;50.836;12.060;2024-01-15T10:39:22;6.90;72.30
19110;DHT22;9687;50.836;12.060;2024-01-15T10:41:50;7.00;72.80
19110;DHT22;9687;50.836;12.060;2024-01-15T10:44:19;7.20;71.70
19110;DHT22;9687;50.836;12.060;2024-01-15T10:46:47;7.20;72.20
19110;DHT22;9687;50.836;12.060;2024-01-15T10:49:27;7.40;72.20
19110;DHT22;9687;50.836;12.060;2024-01-15T10:51:57;7.60;70.70
19110;DHT22;9687;50.836;12.060;2024-01-15T10:54:43;7.60;71.10
19110;DHT22;9687;50.836;12.060;2024-01-15T10:57:16;7.80;70.40
19110;DHT22;9687;50.836;12.060;2024-01-15T11:00:04;7.90;70.40
19110;DHT22;9687;50.836;12.060;2024-01-15T11:02:34;8.00;70.80
19110;DHT22;9687;50.836;12.060;2024-01-15T11:05:05;8.10;70.60
19110;DHT22;9687;50.836;12.060;2024-01-15T11:07:41;8.10;70.40
19110;DHT22;9687;50.836;12.060;2024-01-15T11:12:56;8.20;69.10
19110;DHT22;9687;50.836;12.060;2024-01-15T11:15:25;8.30;69.20
19110;DHT22;9687;50.836;12.060;2024-01-15T11:17:58;8.40;69.30
19110;DHT22;9687;50.836;12.060;2024-01-15T11:20:28;8.40;69.10
19110;DHT22;9687;50.836;12.060;2024-01-15T11:22:59;8.40;69.20
19110;DHT22;9687;50.836;12.060;2024-01-15T11:25:35;8.50;68.10
19110;DHT22;9687;50.836;12.060;2024-01-15T11:28:11;8.40;67.10
19110;DHT22;9687;50.836;12.060;2024-01-15T11:31:00;8.40;67.90
19110;DHT22;9687;50.836;12.060;2024-01-15T11:33:57;8.50;67.90
19110;DHT22;9687;50.836;12.060;2024-01-15T11:37:03;8.50;67.50
19110;DHT22;9687;50.836;12.060;2024-01-15T11:39:54;8.50;67.20
19110;DHT22;9687;50.836;12.060;2024-01-15T11:42:23;8.50;67.00
19110;DHT22;9687;50.836;12.060;2024-01-15T11:44:51;8.50;67.20
19110;DHT22;9687;50.836;12.060;2024-01-15T11:50:14;8.40;66.80
19110;DHT22;9687;50.836;12.060;2024-01-15T11:52:49;8.50;66.30
19110;DHT22;9687;50.836;12.060;2024-01-15T11:55:26;8.10;65.60
19110;DHT22;9687;50.836;12.060;2024-01-15T11:57:57;8.00;65.70
19110;DHT22;9687;50.836;12.060;2024-01-15T12:00:29;7.80;66.00
19110;DHT22;9687;50.836;12.060;2024-01-15T12:03:04;7.70;66.30
19110;DHT22;9687;50.836;12.060;2024-01-15T12:05:51;7.60;66.50
19110;DHT22;9687;50.836;12.060;2024-01-15T12:08:42;7.40;66.60
19110;DHT22;9687;50.836;12.060;2024-01-15T12:11:11;7.40;67.00
19110;DHT22;9687;50.836;12.060;2024-01-15T12:13:41;7.40;67.50
19110;DHT22;9687;50.836;12.060;2024-01-15T12:16:14;7.40;67.70
19110;DHT22;9687;50.836;12.060;2024-01-15T12:18:42;7.50;68.00
19110;DHT22;9687;50.836;12.060;2024-01-15T12:21:10;7.50;68.00
19110;DHT22;9687;50.836;12.060;2024-01-15T12:23:39;7.60;67.80
19110;DHT22;9687;50.836;12.060;2024-01-15T12:26:09;7.70;67.90
19110;DHT22;9687;50.836;12.060;2024-01-15T12:28:39;7.90;68.20
19110;DHT22;9687;50.836;12.060;2024-01-15T12:31:09;8.00;68.20
19110;DHT22;9687;50.836;12.060;2024-01-15T12:33:38;8.10;68.20
19110;DHT22;9687;50.836;12.060;2024-01-15T12:36:07;8.20;68.00
19110;DHT22;9687;50.836;12.060;2024-01-15T12:38:45;8.30;67.60
19110;DHT22;9687;50.836;12.060;2024-01-15T12:41:15;8.40;67.00
19110;DHT22;9687;50.836;12.060;2024-01-15T12:43:52;8.50;66.90
19110;DHT22;9687;50.836;12.060;2024-01-15T12:46:23;8.60;66.70
19110;DHT22;9687;50.836;12.060;2024-01-15T12:48:52;8.60;66.20
19110;DHT22;9687;50.836;12.060;2024-01-15T12:51:24;8.60;66.00
19110;DHT22;9687;50.836;12.060;2024-01-15T12:53:52;8.60;65.70
19110;DHT22;9687;50.836;12.060;2024-01-15T12:56:21;8.50;65.60
19110;DHT22;9687;50.836;12.060;2024-01-15T12:58:57;8.50;65.60
19110;DHT22;9687;50.836;12.060;2024-01-15T13:01:28;8.30;65.10
19110;DHT22;9687;50.836;12.060;2024-01-15T13:03:55;8.20;65.00
19110;DHT22;9687;50.836;12.060;2024-01-15T13:06:26;8.10;65.20
19110;DHT22;9687;50.836;12.060;2024-01-15T13:08:57;8.00;65.10
19110;DHT22;9687;50.836;12.060;2024-01-15T13:11:29;7.90;65.00
19110;DHT22;9687;50.836;12.060;2024-01-15T13:14:02;7.70;65.00
19110;DHT22;9687;50.836;12.060;2024-01-15T13:16:30;7.60;65.20
19110;DHT22;9687;50.836;12.060;2024-01-15T13:18:58;7.50;65.20
19110;DHT22;9687;50.836;12.060;2024-01-15T13:21:26;7.30;65.40
19110;DHT22;9687;50.836;12.060;2024-01-15T13:24:18;7.30;65.50
19110;DHT22;9687;50.836;12.060;2024-01-15T13:26:48;7.20;65.50
19110;DHT22;9687;50.836;12.060;2024-01-15T13:29:17;7.10;65.80
19110;DHT22;9687;50.836;12.060;2024-01-15T13:32:05;6.90;66.00
19110;DHT22;9687;50.836;12.060;2024-01-15T13:34:43;6.80;66.50
19110;DHT22;9687;50.836;12.060;2024-01-15T13:37:23;6.80;67.70
19110;DHT22;9687;50.836;12.060;2024-01-15T13:39:52;6.70;67.10
19110;DHT22;9687;50.836;12.060;2024-01-15T13:42:28;6.70;67.50
19110;DHT22;9687;50.836;12.060;2024-01-15T13:45:16;6.60;67.50
19110;DHT22;9687;50.836;12.060;2024-01-15T13:47:52;6.60;67.50
19110;DHT22;9687;50.836;12.060;2024-01-15T13:50:32;6.50;67.40
19110;DHT22;9687;50.836;12.060;2024-01-15T13:53:00;6.50;67.40
19110;DHT22;9687;50.836;12.060;2024-01-15T13:55:29;6.40;67.30
19110;DHT22;9687;50.836;12.060;2024-01-15T13:57:59;6.30;67.50
19110;DHT22;9687;50.836;12.060;2024-01-15T14:00:48;6.20;67.10
19110;DHT22;9687;50.836;12.060;2024-01-15T14:03:16;6.30;67.90
19110;DHT22;9687;50.836;12.060;2024-01-15T14:05:45;6.20;67.90
19110;DHT22;9687;50.836;12.060;2024-01-15T14:08:24;6.00;67.80
19110;DHT22;9687;50.836;12.060;2024-01-15T14:11:04;6.10;67.40
19110;DHT22;9687;50.836;12.060;2024-01-15T14:13:34;6.10;68.20
19110;DHT22;9687;50.836;12.060;2024-01-15T14:16:03;6.00;68.20
19110;DHT22;9687;50.836;12.060;2024-01-15T14:18:38;6.00;68.30
19110;DHT22;9687;50.836;12.060;2024-01-15T14:21:06;6.00;67.70
19110;DHT22;9687;50.836;12.060;2024-01-15T14:23:33;6.00;68.40
19110;DHT22;9687;50.836;12.060;2024-01-15T14:26:00;6.00;68.40
19110;DHT22;9687;50.836;12.060;2024-01-15T14:28:47;5.90;68.40
19110;DHT22;9687;50.836;12.060;2024-01-15T14:31:19;5.90;68.40
19110;DHT22;9687;50.836;12.060;2024-01-15T14:34:06;5.90;68.60
19110;DHT22;9687;50.836;12.060;2024-01-15T14:36:42;5.90;68.60
19110;DHT22;9687;50.836;12.060;2024-01-15T14:39:10;5.80;68.70
19110;DHT22;9687;50.836;12.060;2024-01-15T14:41:37;5.80;68.90
19110;DHT22;9687;50.836;12.060;2024-01-15T14:44:12;5.80;69.10
19110;DHT22;9687;50.836;12.060;2024-01-15T14:46:40;5.80;69.50
19110;DHT22;9687;50.836;12.060;2024-01-15T14:49:13;5.70;69.70
19110;DHT22;9687;50.836;12.060;2024-01-15T14:51:41;5.70;69.90
19110;DHT22;9687;50.836;12.060;2024-01-15T14:54:10;5.70;70.10
19110;DHT22;9687;50.836;12.060;2024-01-15T14:56:38;5.60;70.30
19110;DHT22;9687;50.836;12.060;2024-01-15T14:59:07;5.60;70.30
19110;DHT22;9687;50.836;12.060;2024-01-15T15:01:36;5.60;70.40
19110;DHT22;9687;50.836;12.060;2024-01-15T15:04:07;5.60;70.60
19110;DHT22;9687;50.836;12.060;2024-01-15T15:06:36;5.60;70.70
19110;DHT22;9687;50.836;12.060;2024-01-15T15:09:04;5.60;70.80
19110;DHT22;9687;50.836;12.060;2024-01-15T15:11:36;5.60;70.90
19110;DHT22;9687;50.836;12.060;2024-01-15T15:14:04;5.60;71.00
19110;DHT22;9687;50.836;12.060;2024-01-15T15:16:33;5.60;71.00
19110;DHT22;9687;50.836;12.060;2024-01-15T15:19:02;5.60;71.10
19110;DHT22;9687;50.836;12.060;2024-01-15T15:21:48;5.50;71.00
19110;DHT22;9687;50.836;12.060;2024-01-15T15:24:16;5.60;71.20
19110;DHT22;9687;50.836;12.060;2024-01-15T15:26:44;5.50;71.30
19110;DHT22;9687;50.836;12.060;2024-01-15T15:29:11;5.50;70.70
19110;DHT22;9687;50.836;12.060;2024-01-15T15:31:39;5.50;71.40
19110;DHT22;9687;50.836;12.060;2024-01-15T15:34:10;5.50;71.50
19110;DHT22;9687;50.836;12.060;2024-01-15T15:36:38;5.40;70.80
19110;DHT22;9687;50.836;12.060;2024-01-15T15:39:12;5.50;71.60
19110;DHT22;9687;50.836;12.060;2024-01-15T15:41:53;5.40;71.60
19110;DHT22;9687;50.836;12.060;2024-01-15T15:44:21;5.40;71.80
19110;DHT22;9687;50.836;12.060;2024-01-15T15:46:49;5.40;71.70
19110;DHT22;9687;50.836;12.060;2024-01-15T15:49:19;5.50;71.90
19110;DHT22;9687;50.836;12.060;2024-01-15T15:52:21;5.50;72.00
19110;DHT22;9687;50.836;12.060;2024-01-15T15:54:49;5.50;72.00
19110;DHT22;9687;50.836;12.060;2024-01-15T15:57:17;5.50;72.00
19110;DHT22;9687;50.836;12.060;2024-01-15T15:59:45;5.50;71.90
19110;DHT22;9687;50.836;12.060;2024-01-15T16:02:12;5.50;71.90
19110;DHT22;9687;50.836;12.060;2024-01-15T16:04:41;5.50;71.30
19110;DHT22;9687;50.836;12.060;2024-01-15T16:07:19;5.50;71.90
19110;DHT22;9687;50.836;12.060;2024-01-15T16:09:49;5.50;71.90
19110;DHT22;9687;50.836;12.060;2024-01-15T16:12:18;5.50;71.80
19110;DHT22;9687;50.836;12.060;2024-01-15T16:14:45;5.50;72.00
19110;DHT22;9687;50.836;12.060;2024-01-15T16:17:14;5.50;72.00
19110;DHT22;9687;50.836;12.060;2024-01-15T16:20:20;5.50;72.00
19110;DHT22;9687;50.836;12.060;2024-01-15T16:22:51;5.50;72.00
19110;DHT22;9687;50.836;12.060;2024-01-15T16:25:19;5.50;72.00
19110;DHT22;9687;50.836;12.060;2024-01-15T16:27:47;5.40;71.90
19110;DHT22;9687;50.836;12.060;2024-01-15T16:30:16;5.40;71.90
19110;DHT22;9687;50.836;12.060;2024-01-15T16:32:55;5.40;71.90
19110;DHT22;9687;50.836;12.060;2024-01-15T16:35:24;5.40;72.00